Terminal Aerodrome Forecast
Issued by NWS Dodge City, KS

Home | Current Version | Previous Version | Text Only | Print | Product List | Glossary On
Versions: 1 2 3 4 5 6 7 8 9 10 11 12 13 14 15 16 17
000
FTUS43 KDDC 231120
TAFDDC
TAF
KDDC 231120Z 2312/2412 21006KT P6SM SKC
     FM231500 20010KT P6SM SKC
     FM231800 19015G23KT P6SM SKC
     FM240500 17017G25KT P6SM SKC WS013/19030KT
     FM240600 17017G25KT P6SM FEW250 WS020/19045KT
     FM240800 18017G25KT P6SM FEW250 WS020/20055KT=

USA.gov is the U.S. government's official web portal to all federal, state and local government web resources and services.